createdAt,value
2019-04-14T00:01:39.103Z,19.12
2019-04-14T00:04:22.584Z,15.17
2019-04-14T00:06:54.814Z,15.90
2019-04-14T00:09:27.207Z,16.73
2019-04-14T00:11:59.093Z,17.00
2019-04-14T00:14:30.008Z,17.27
2019-04-14T00:17:02.106Z,14.50
2019-04-14T00:19:34.673Z,17.30
2019-04-14T00:22:07.217Z,13.43
2019-04-14T00:24:40.228Z,16.57
2019-04-14T00:27:11.359Z,18.40
2019-04-14T00:29:42.220Z,15.57
2019-04-14T00:32:14.111Z,14.37
2019-04-14T00:34:59.415Z,14.75
2019-04-14T00:37:35.881Z,11.43
2019-04-14T00:40:15.136Z,12.63
2019-04-14T00:43:00.487Z,14.33
2019-04-14T00:45:45.291Z,15.03
2019-04-14T00:48:18.954Z,14.60
2019-04-14T00:50:49.539Z,11.73
2019-04-14T00:53:20.813Z,12.73
2019-04-14T00:55:51.734Z,13.27
2019-04-14T00:58:23.605Z,12.58
2019-04-14T01:00:55.752Z,13.23
2019-04-14T01:03:26.646Z,13.93
2019-04-14T01:05:59.053Z,13.70
2019-04-14T01:08:29.937Z,16.05
2019-04-14T01:11:01.167Z,15.10
2019-04-14T01:13:33.173Z,14.28
2019-04-14T01:16:11.597Z,12.60
2019-04-14T01:18:38.672Z,11.77
2019-04-14T01:21:10.944Z,11.90
2019-04-14T01:23:43.472Z,14.73
2019-04-14T01:26:16.021Z,12.60
2019-04-14T01:28:48.204Z,13.57
2019-04-14T01:31:20.649Z,17.33
2019-04-14T01:33:53.283Z,11.73
2019-04-14T01:36:25.519Z,17.23
2019-04-14T01:38:56.380Z,10.77
2019-04-14T01:41:28.226Z,10.17
2019-04-14T01:44:00.234Z,13.13
2019-04-14T01:46:33.052Z,11.03
2019-04-14T01:49:04.935Z,13.80
2019-04-14T01:51:59.223Z,11.97
2019-04-14T01:54:42.992Z,11.20
2019-04-14T01:57:32.893Z,9.73
2019-04-14T02:00:22.828Z,12.95
2019-04-14T02:02:55.374Z,9.63
2019-04-14T02:05:26.360Z,11.53
2019-04-14T02:07:58.003Z,13.22
2019-04-14T02:10:30.392Z,11.37
2019-04-14T02:13:02.824Z,16.57
2019-04-14T02:15:35.114Z,11.43
2019-04-14T02:18:07.711Z,15.50
2019-04-14T02:20:40.380Z,11.18
2019-04-14T02:23:12.598Z,13.23
2019-04-14T02:25:45.058Z,15.20
2019-04-14T02:28:17.651Z,14.27
2019-04-14T02:31:00.224Z,13.17
2019-04-14T02:33:44.590Z,16.40
2019-04-14T02:39:01.290Z,9.77
2019-04-14T02:41:27.690Z,11.73
2019-04-14T02:44:04.383Z,11.47
2019-04-14T02:46:39.992Z,12.47
2019-04-14T02:49:20.418Z,12.35
2019-04-14T02:51:36.375Z,13.60
2019-04-14T02:54:13.832Z,12.67
2019-04-14T02:56:41.212Z,10.67
2019-04-14T02:59:11.715Z,11.20
2019-04-14T03:04:19.140Z,14.07
2019-04-14T03:06:58.210Z,11.80
2019-04-14T03:09:38.838Z,11.50
2019-04-14T03:12:01.172Z,13.27
2019-04-14T03:17:39.094Z,12.60
2019-04-14T03:20:27.403Z,11.50
2019-04-14T03:25:51.317Z,12.97
2019-04-14T03:28:31.739Z,10.70
2019-04-14T03:31:25.250Z,14.03
2019-04-14T03:34:17.603Z,13.13
2019-04-14T03:41:24.062Z,11.97
2019-04-14T03:43:48.304Z,13.08
2019-04-14T03:46:41.502Z,14.83
2019-04-14T03:48:58.415Z,19.20
2019-04-14T03:51:43.159Z,16.40
2019-04-14T03:53:58.738Z,16.10
2019-04-14T03:57:01.838Z,13.13
2019-04-14T03:59:34.511Z,17.50
2019-04-14T04:02:05.454Z,16.10
2019-04-14T04:04:36.591Z,17.83
2019-04-14T04:07:08.240Z,17.67
2019-04-14T04:09:45.480Z,17.65
2019-04-14T04:12:16.718Z,18.20
2019-04-14T04:14:48.543Z,15.67
2019-04-14T04:17:56.598Z,21.87
2019-04-14T04:20:35.557Z,11.70
2019-04-14T04:23:24.889Z,14.60
2019-04-14T04:26:01.746Z,12.57
2019-04-14T04:28:50.382Z,17.40
2019-04-14T04:31:30.686Z,16.77
2019-04-14T04:34:10.099Z,12.57
2019-04-14T04:36:59.559Z,12.30
2019-04-14T04:39:36.360Z,15.05
2019-04-14T04:42:07.018Z,14.20
2019-04-14T04:44:38.244Z,16.32
2019-04-14T04:47:09.916Z,17.00
2019-04-14T04:49:41.042Z,14.07
2019-04-14T04:52:13.989Z,16.90
2019-04-14T04:54:45.021Z,16.67
2019-04-14T04:57:15.840Z,20.43
2019-04-14T04:59:47.663Z,22.87
2019-04-14T05:02:19.811Z,14.23
2019-04-14T05:04:50.821Z,13.07
2019-04-14T05:07:23.157Z,13.43
2019-04-14T05:10:16.036Z,15.53
2019-04-14T05:13:00.565Z,19.80
2019-04-14T05:15:48.941Z,17.70
2019-04-14T05:18:22.332Z,18.63
2019-04-14T05:20:55.217Z,16.17
2019-04-14T05:23:26.322Z,19.80
2019-04-14T05:25:58.148Z,16.20
2019-04-14T05:28:31.014Z,16.10
2019-04-14T05:31:03.250Z,17.87
2019-04-14T05:33:34.535Z,18.00
2019-04-14T05:36:06.328Z,18.40
2019-04-14T05:38:38.517Z,14.90
2019-04-14T05:41:11.502Z,16.32
2019-04-14T05:43:48.766Z,17.77
2019-04-14T05:46:16.345Z,17.20
2019-04-14T05:48:47.409Z,18.83
2019-04-14T05:51:20.165Z,14.30
2019-04-14T05:53:52.280Z,17.50
2019-04-14T05:56:23.726Z,17.40
2019-04-14T05:58:55.692Z,20.87
2019-04-14T06:01:27.042Z,20.80
2019-04-14T06:03:58.311Z,17.95
2019-04-14T06:06:29.624Z,18.80
2019-04-14T06:09:00.497Z,18.33
2019-04-14T06:11:32.737Z,19.37
2019-04-14T06:14:03.951Z,16.90
2019-04-14T06:16:35.065Z,20.43
2019-04-14T06:19:05.935Z,22.17
2019-04-14T06:21:37.056Z,16.75
2019-04-14T06:24:08.207Z,17.70
2019-04-14T06:26:39.148Z,20.23
2019-04-14T06:29:09.983Z,18.50
2019-04-14T06:32:02.983Z,22.60
2019-04-14T06:34:46.758Z,17.47
2019-04-14T06:37:26.520Z,17.00
2019-04-14T06:39:57.654Z,20.47
2019-04-14T06:42:28.612Z,16.13
2019-04-14T06:44:59.465Z,16.50
2019-04-14T06:47:30.727Z,23.12
2019-04-14T06:50:01.863Z,22.17
2019-04-14T06:52:32.734Z,22.00
2019-04-14T06:55:03.789Z,19.87
2019-04-14T06:57:34.995Z,17.40
2019-04-14T07:00:05.999Z,15.80
2019-04-14T07:02:36.855Z,21.73
2019-04-14T07:05:07.731Z,19.07
2019-04-14T07:07:38.671Z,17.90
2019-04-14T07:10:09.691Z,17.40
2019-04-14T07:12:43.008Z,19.57
2019-04-14T07:15:13.449Z,21.47
2019-04-14T07:17:44.761Z,18.57
2019-04-14T07:20:15.626Z,17.27
2019-04-14T07:22:46.489Z,19.70
2019-04-14T07:25:17.331Z,21.87
2019-04-14T07:27:48.228Z,16.23
2019-04-14T07:30:44.264Z,18.93
2019-04-14T07:33:32.687Z,17.83
2019-04-14T07:36:31.816Z,22.10
2019-04-14T07:39:27.957Z,17.82
2019-04-14T07:42:07.152Z,17.48
2019-04-14T07:44:56.335Z,19.70
2019-04-14T07:47:43.440Z,20.00
2019-04-14T07:50:39.612Z,23.90
2019-04-14T07:53:28.735Z,19.30
2019-04-14T07:56:13.974Z,20.13
2019-04-14T07:58:56.282Z,22.00
2019-04-14T08:01:44.783Z,17.63
2019-04-14T08:04:18.976Z,19.27
2019-04-14T08:06:51.621Z,21.73
2019-04-14T08:09:22.457Z,20.00
2019-04-14T08:11:53.458Z,22.37
2019-04-14T08:14:24.608Z,18.07
2019-04-14T08:16:56.368Z,18.00
2019-04-14T08:19:27.202Z,17.87
2019-04-14T08:21:58.101Z,21.47
2019-04-14T08:24:29.209Z,19.10
2019-04-14T08:27:00.389Z,21.10
2019-04-14T08:29:31.926Z,22.53
2019-04-14T08:32:02.755Z,19.10
2019-04-14T08:34:33.861Z,23.43
2019-04-14T08:37:04.741Z,21.82
2019-04-14T08:39:35.955Z,22.03
2019-04-14T08:42:24.600Z,21.87
2019-04-14T08:44:56.060Z,23.80
2019-04-14T08:47:49.631Z,25.47
2019-04-14T08:50:42.842Z,21.93
2019-04-14T08:53:20.011Z,22.67
2019-04-14T08:56:12.641Z,23.07
2019-04-14T08:58:59.193Z,22.62
2019-04-14T09:01:36.071Z,25.53
2019-04-14T09:04:31.851Z,19.37
2019-04-14T09:07:20.752Z,25.07
2019-04-14T09:09:55.918Z,29.40
2019-04-14T09:12:30.437Z,25.47
2019-04-14T09:15:01.350Z,23.77
2019-04-14T09:17:33.534Z,28.10
2019-04-14T09:20:05.389Z,23.17
2019-04-14T09:22:36.551Z,23.23
2019-04-14T09:25:08.005Z,26.33
2019-04-14T09:27:39.358Z,24.87
2019-04-14T09:30:10.394Z,25.08
2019-04-14T09:32:41.382Z,23.52
2019-04-14T09:35:12.253Z,23.90
2019-04-14T09:37:43.182Z,32.93
2019-04-14T09:40:14.366Z,26.23
2019-04-14T09:42:45.271Z,28.00
2019-04-14T09:45:16.216Z,23.60
2019-04-14T09:47:47.075Z,26.93
2019-04-14T09:50:17.988Z,29.33
2019-04-14T09:52:49.510Z,25.90
2019-04-14T09:55:20.383Z,25.80
2019-04-14T09:57:51.207Z,26.20
2019-04-14T10:00:22.162Z,27.47
2019-04-14T10:02:53.601Z,27.57
2019-04-14T10:05:24.842Z,25.30
2019-04-14T10:07:55.992Z,32.70
2019-04-14T10:10:26.901Z,27.73
2019-04-14T10:12:58.290Z,23.67
2019-04-14T10:15:29.173Z,25.93
2019-04-14T10:18:00.055Z,23.20
2019-04-14T10:20:31.428Z,30.07
2019-04-14T10:23:02.308Z,24.87
2019-04-14T10:25:33.588Z,27.85
2019-04-14T10:28:04.537Z,23.33
2019-04-14T10:30:35.698Z,25.37
2019-04-14T10:33:06.602Z,22.80
2019-04-14T10:35:37.880Z,20.87
2019-04-14T10:38:09.193Z,18.60
2019-04-14T10:40:40.041Z,23.27
2019-04-14T10:43:11.151Z,22.60
2019-04-14T10:45:42.073Z,25.30
2019-04-14T10:48:12.985Z,20.77
2019-04-14T10:50:45.018Z,21.12
2019-04-14T10:53:16.111Z,19.83
2019-04-14T10:55:47.219Z,20.07
2019-04-14T10:58:18.163Z,18.27
2019-04-14T11:00:49.269Z,18.43
2019-04-14T11:03:21.761Z,20.73
2019-04-14T11:06:00.874Z,20.57
2019-04-14T11:08:31.726Z,20.40
2019-04-14T11:11:03.415Z,19.57
2019-04-14T11:13:35.354Z,18.27
2019-04-14T11:16:07.319Z,19.13
2019-04-14T11:18:39.614Z,16.77
2019-04-14T11:21:10.481Z,18.17
2019-04-14T11:23:41.322Z,22.70
2019-04-14T11:26:12.927Z,19.23
2019-04-14T11:28:43.848Z,20.63
2019-04-14T11:31:17.124Z,20.83
2019-04-14T11:34:01.271Z,18.83
2019-04-14T11:36:49.988Z,20.87
2019-04-14T11:39:21.100Z,16.43
2019-04-14T11:41:52.055Z,19.40
2019-04-14T11:44:22.911Z,17.63
2019-04-14T11:46:53.806Z,17.77
2019-04-14T11:49:25.019Z,17.93
2019-04-14T11:51:56.040Z,18.40
2019-04-14T11:54:26.959Z,17.77
2019-04-14T11:56:57.863Z,14.63
2019-04-14T11:59:48.441Z,12.77
2019-04-14T12:02:40.399Z,13.37
2019-04-14T12:05:36.112Z,12.77
2019-04-14T12:08:26.106Z,13.93
2019-04-14T12:10:57.523Z,13.32
2019-04-14T12:13:28.615Z,10.07
2019-04-14T12:15:59.525Z,16.37
2019-04-14T12:18:30.978Z,10.72
2019-04-14T12:21:01.833Z,15.87
2019-04-14T12:23:33.279Z,9.47
2019-04-14T12:26:05.979Z,8.77
2019-04-14T12:28:36.881Z,8.70
2019-04-14T12:31:09.344Z,11.50
2019-04-14T12:33:40.221Z,10.40
2019-04-14T12:36:13.008Z,10.37
2019-04-14T12:38:45.478Z,12.23
2019-04-14T12:41:22.640Z,11.03
2019-04-14T12:44:01.360Z,10.07
2019-04-14T12:46:42.466Z,11.27
2019-04-14T12:49:23.643Z,10.98
2019-04-14T12:52:21.041Z,11.00
2019-04-14T12:54:45.145Z,9.13
2019-04-14T12:57:18.297Z,13.95
2019-04-14T12:59:49.162Z,11.50
2019-04-14T13:02:22.538Z,12.73
2019-04-14T13:04:55.396Z,12.57
2019-04-14T13:07:25.936Z,10.67
2019-04-14T13:09:57.097Z,11.50
2019-04-14T13:12:27.989Z,14.60
2019-04-14T13:14:58.844Z,12.00
2019-04-14T13:17:29.737Z,14.20
2019-04-14T13:20:00.577Z,11.53
2019-04-14T13:22:34.005Z,10.95
2019-04-14T13:25:05.582Z,15.08
2019-04-14T13:27:36.488Z,13.03
2019-04-14T13:30:09.963Z,14.10
2019-04-14T13:32:40.885Z,12.40
2019-04-14T13:35:11.867Z,11.85
2019-04-14T13:37:43.253Z,12.80
2019-04-14T13:40:14.733Z,13.97
2019-04-14T13:42:45.684Z,14.30
2019-04-14T13:45:16.532Z,17.50
2019-04-14T13:47:47.421Z,14.85
2019-04-14T13:50:18.283Z,17.70
2019-04-14T13:52:49.422Z,15.58
2019-04-14T13:55:20.685Z,17.65
2019-04-14T13:57:51.528Z,19.00
2019-04-14T14:00:22.770Z,18.40
2019-04-14T14:02:53.711Z,18.83
2019-04-14T14:05:24.621Z,16.00
2019-04-14T14:07:55.491Z,18.53
2019-04-14T14:10:29.806Z,17.40
2019-04-14T14:13:13.278Z,20.07
2019-04-14T14:16:07.338Z,20.08
2019-04-14T14:18:48.419Z,18.90
2019-04-14T14:21:56.815Z,20.48
2019-04-14T14:24:39.431Z,21.97
2019-04-14T14:27:10.969Z,19.67
2019-04-14T14:29:41.954Z,23.85
2019-04-14T14:32:19.203Z,29.20
2019-04-14T14:34:50.363Z,22.57
2019-04-14T14:37:21.231Z,23.17
2019-04-14T14:39:53.169Z,25.17
2019-04-14T14:42:24.077Z,24.80
2019-04-14T14:45:00.968Z,25.57
2019-04-14T14:47:32.722Z,24.80
2019-04-14T14:50:26.600Z,24.57
2019-04-14T14:52:57.728Z,24.43
2019-04-14T14:55:28.688Z,29.60
2019-04-14T14:57:59.546Z,25.70
2019-04-14T15:00:32.596Z,29.03
2019-04-14T15:03:04.594Z,26.15
2019-04-14T15:05:36.590Z,30.47
2019-04-14T15:08:07.829Z,30.47
2019-04-14T15:10:38.724Z,28.65
2019-04-14T15:13:10.576Z,31.53
2019-04-14T15:15:41.513Z,31.23
2019-04-14T15:18:13.125Z,26.70
2019-04-14T15:20:44.125Z,30.60
2019-04-14T15:23:24.684Z,32.03
2019-04-14T15:25:47.923Z,26.93
2019-04-14T15:28:18.817Z,25.63
2019-04-14T15:30:49.701Z,28.23
2019-04-14T15:33:20.598Z,28.77
2019-04-14T15:35:52.461Z,35.43
2019-04-14T15:38:24.300Z,28.27
2019-04-14T15:40:55.222Z,32.23
2019-04-14T15:43:26.366Z,31.33
2019-04-14T15:45:59.464Z,31.63
2019-04-14T15:48:30.383Z,32.93
2019-04-14T15:51:01.544Z,27.57
2019-04-14T15:53:38.205Z,30.33
2019-04-14T15:56:06.779Z,27.57
2019-04-14T15:58:43.639Z,30.07
2019-04-14T16:01:36.411Z,27.07
2019-04-14T16:04:29.644Z,28.90
2019-04-14T16:07:19.807Z,28.93
2019-04-14T16:10:01.771Z,25.33
2019-04-14T16:12:56.034Z,29.50
2019-04-14T16:16:04.372Z,29.47
2019-04-14T16:18:49.138Z,32.05
2019-04-14T16:21:20.026Z,30.60
2019-04-14T16:23:51.735Z,27.32
2019-04-14T16:26:44.894Z,29.13
2019-04-14T16:29:20.007Z,28.10
2019-04-14T16:32:12.913Z,29.90
2019-04-14T16:34:56.161Z,29.80
2019-04-14T16:37:27.395Z,34.43
2019-04-14T16:39:58.658Z,30.73
2019-04-14T16:42:29.806Z,29.03
2019-04-14T16:45:00.651Z,31.53
2019-04-14T16:47:32.141Z,29.97
2019-04-14T16:50:03.454Z,26.37
2019-04-14T16:52:56.622Z,27.63
2019-04-14T16:55:43.847Z,28.63
2019-04-14T16:58:20.383Z,30.83
2019-04-14T17:00:56.357Z,29.42
2019-04-14T17:03:27.208Z,30.50
2019-04-14T17:05:58.463Z,29.10
2019-04-14T17:08:29.556Z,30.90
2019-04-14T17:11:00.723Z,28.17
2019-04-14T17:13:34.812Z,32.60
2019-04-14T17:16:23.594Z,31.13
2019-04-14T17:19:03.255Z,27.95
2019-04-14T17:21:42.542Z,42.50
2019-04-14T17:24:31.178Z,35.57
2019-04-14T17:27:11.767Z,34.60
2019-04-14T17:30:16.980Z,28.27
2019-04-14T17:33:07.581Z,32.83
2019-04-14T17:36:03.998Z,32.30
2019-04-14T17:38:48.790Z,27.47
2019-04-14T17:41:56.736Z,29.90
2019-04-14T17:44:45.366Z,26.50
2019-04-14T17:47:34.378Z,43.87
2019-04-14T17:50:23.996Z,27.07
2019-04-14T17:53:00.577Z,32.75
2019-04-14T17:55:49.117Z,30.90
2019-04-14T17:58:15.233Z,32.90
2019-04-14T18:00:56.684Z,28.15
2019-04-14T18:03:38.196Z,31.43
2019-04-14T18:06:28.703Z,30.77
2019-04-14T18:09:29.026Z,27.87
2019-04-14T18:12:19.126Z,30.60
2019-04-14T18:15:15.195Z,29.72
2019-04-14T18:18:05.105Z,32.03
2019-04-14T18:20:41.080Z,33.37
2019-04-14T18:23:11.978Z,33.77
2019-04-14T18:25:43.507Z,28.93
2019-04-14T18:28:25.996Z,28.10
2019-04-14T18:31:01.958Z,31.03
2019-04-14T18:33:52.387Z,31.40
2019-04-14T18:36:45.379Z,29.18
2019-04-14T18:39:49.734Z,32.67
2019-04-14T18:42:25.257Z,30.27
2019-04-14T18:45:15.024Z,28.47
2019-04-14T18:47:48.660Z,29.63
2019-04-14T18:50:27.644Z,25.23
2019-04-14T18:53:08.961Z,27.60
2019-04-14T18:55:48.795Z,29.67
2019-04-14T18:58:42.717Z,29.67
2019-04-14T19:01:18.533Z,26.80
2019-04-14T19:03:49.419Z,34.40
2019-04-14T19:06:20.309Z,26.70
2019-04-14T19:08:51.867Z,28.62
2019-04-14T19:11:40.631Z,29.30
2019-04-14T19:14:14.378Z,26.37
2019-04-14T19:16:48.637Z,27.90
2019-04-14T19:19:20.510Z,30.08
2019-04-14T19:21:51.624Z,30.25
2019-04-14T19:24:22.500Z,27.98
2019-04-14T19:26:53.677Z,28.32
2019-04-14T19:29:27.549Z,28.77
2019-04-14T19:31:57.276Z,33.70
2019-04-14T19:34:28.136Z,35.07
2019-04-14T19:36:59.428Z,30.70
2019-04-14T19:39:31.191Z,32.77
2019-04-14T19:42:02.058Z,28.13
2019-04-14T19:44:32.920Z,33.07
2019-04-14T19:47:03.915Z,27.73
2019-04-14T19:49:34.816Z,28.90
2019-04-14T19:52:06.045Z,32.58
2019-04-14T19:54:37.240Z,34.97
2019-04-14T19:57:08.100Z,32.63
2019-04-14T19:59:40.105Z,30.08
2019-04-14T20:02:11.208Z,28.63
2019-04-14T20:04:42.071Z,30.83
2019-04-14T20:07:13.118Z,27.50
2019-04-14T20:09:44.241Z,30.17
2019-04-14T20:12:15.398Z,25.30
2019-04-14T20:14:47.867Z,26.95
2019-04-14T20:17:53.106Z,33.73
2019-04-14T20:20:35.613Z,25.93
2019-04-14T20:23:17.152Z,30.97
2019-04-14T20:26:04.426Z,28.17
2019-04-14T20:28:40.045Z,33.00
2019-04-14T20:31:26.794Z,31.60
2019-04-14T20:33:58.030Z,31.37
2019-04-14T20:36:29.456Z,27.17
2019-04-14T20:39:00.396Z,29.50
2019-04-14T20:41:31.915Z,32.23
2019-04-14T20:44:03.311Z,29.60
2019-04-14T20:46:34.230Z,30.97
2019-04-14T20:49:06.062Z,31.53
2019-04-14T20:51:36.934Z,27.03
2019-04-14T20:54:07.872Z,28.63
2019-04-14T20:56:38.876Z,33.60
2019-04-14T20:59:09.802Z,33.10
2019-04-14T21:01:44.869Z,33.53
2019-04-14T21:04:27.941Z,33.73
2019-04-14T21:07:16.793Z,29.57
2019-04-14T21:09:57.257Z,30.15
2019-04-14T21:12:50.164Z,31.80
2019-04-14T21:15:34.825Z,35.40
2019-04-14T21:18:12.487Z,31.97
2019-04-14T21:21:11.440Z,35.07
2019-04-14T21:23:56.708Z,34.30
2019-04-14T21:27:04.665Z,33.98
2019-04-14T21:30:00.360Z,30.63
2019-04-14T21:32:39.329Z,31.20
2019-04-14T21:35:41.547Z,34.43
2019-04-14T21:38:24.614Z,30.50
2019-04-14T21:41:02.703Z,26.17
2019-04-14T21:43:33.525Z,28.60
2019-04-14T21:46:04.580Z,29.00
2019-04-14T21:48:35.659Z,30.27
2019-04-14T21:51:06.602Z,32.50
2019-04-14T21:53:37.833Z,28.37
2019-04-14T21:56:13.488Z,28.67
2019-04-14T21:59:00.261Z,29.23
2019-04-14T22:01:53.002Z,30.03
2019-04-14T22:04:43.825Z,25.60
2019-04-14T22:07:32.590Z,30.03
2019-04-14T22:10:18.095Z,28.80
2019-04-14T22:12:49.399Z,27.30
2019-04-14T22:15:20.270Z,30.75
2019-04-14T22:17:51.590Z,23.37
2019-04-14T22:20:22.483Z,25.37
2019-04-14T22:22:53.240Z,26.00
2019-04-14T22:25:24.360Z,31.87
2019-04-14T22:27:55.316Z,28.80
2019-04-14T22:30:26.178Z,28.40
2019-04-14T22:32:57.031Z,26.68
2019-04-14T22:35:28.935Z,25.40
2019-04-14T22:38:00.340Z,27.03
2019-04-14T22:40:31.205Z,29.57
2019-04-14T22:43:02.155Z,24.63
2019-04-14T22:45:33.273Z,23.43
2019-04-14T22:48:04.745Z,21.23
2019-04-14T22:50:35.588Z,28.30
2019-04-14T22:53:06.458Z,30.10
2019-04-14T22:55:37.700Z,23.07
2019-04-14T22:58:09.736Z,24.13
2019-04-14T23:00:45.511Z,19.00
2019-04-14T23:03:37.273Z,25.53
2019-04-14T23:06:39.120Z,26.50
2019-04-14T23:09:32.229Z,20.63
2019-04-14T23:12:12.955Z,20.97
2019-04-14T23:14:50.836Z,24.27
2019-04-14T23:17:33.384Z,21.57
2019-04-14T23:20:30.508Z,21.00
2019-04-14T23:23:11.137Z,21.55
2019-04-14T23:25:42.216Z,19.47
2019-04-14T23:28:14.279Z,24.53
2019-04-14T23:30:45.125Z,17.20
2019-04-14T23:33:16.911Z,16.50
2019-04-14T23:35:48.431Z,21.20
2019-04-14T23:38:19.294Z,23.10
2019-04-14T23:40:50.365Z,22.60
2019-04-14T23:43:21.552Z,16.57
2019-04-14T23:45:52.397Z,19.30
2019-04-14T23:48:24.562Z,17.42
2019-04-14T23:50:55.419Z,14.17
2019-04-14T23:53:29.284Z,13.70
2019-04-14T23:56:00.142Z,22.67
2019-04-14T23:58:31.005Z,14.43
